Weather at Doha International Airport

Public forecast

Using degrees Celsius for public forecast. Weather courtesy of forecast.io.

Current aviation weather report (METAR) for Doha International Airport

Retrieved 2021/01/27 05:30 UTC (22 minutes ago):

OTBD 270530Z 31008KT 9000 NSC 21/11 Q1020 NOSIG

Aviation forecast (TAF) for Doha International Airport

Retrieved 2021-01-27 00:00 UTC (6 hours ago):

TAF OTBD 262302Z 2700/2806 29009KT CAVOK TEMPO 2700/2705 5000 HZ PROB30 TEMPO 2700/2704 2000 BR FEW 003 BECMG 2706/2708 35010KT TEMPO 2708/2715 04015KT